Time;durP1;ratioP1;P1;durP2;ratioP2;P2;SDS_P1;SDS_P2;PMS_P1;PMS_P2;Temp;Humidity;BMP_temperature;BMP_pressure;BME280_temperature;BME280_humidity;BME280_pressure;Samples;Min_cycle;Max_cycle;Signal;HPM_P1;HPM_P2
2022/01/05 00:02:05;;;;;;;5.07;1.92;;;20.30;56.20;;;;;;4996042;28;20101;-61
2022/01/05 00:04:31;;;;;;;4.82;1.92;;;20.30;56.20;;;;;;4996422;28;20465;-61
2022/01/05 00:06:56;;;;;;;4.25;1.73;;;20.30;56.20;;;;;;4994505;28;20043;-60
2022/01/05 00:09:22;;;;;;;5.60;1.90;;;20.20;56.00;;;;;;4995924;28;20494;-61
2022/01/05 00:11:47;;;;;;;3.17;1.65;;;20.20;56.10;;;;;;4995785;28;20138;-61
2022/01/05 00:14:13;;;;;;;5.15;1.92;;;20.20;56.10;;;;;;4994327;28;20061;-61
2022/01/05 00:16:38;;;;;;;6.22;1.88;;;20.20;56.00;;;;;;4994795;28;20057;-61
2022/01/05 00:19:04;;;;;;;3.90;1.73;;;20.20;55.90;;;;;;4995208;28;20050;-60
2022/01/05 00:21:29;;;;;;;3.47;1.70;;;20.10;55.80;;;;;;4978522;28;20034;-61
2022/01/05 00:23:55;;;;;;;5.50;1.90;;;20.20;55.80;;;;;;4994655;28;20181;-61
2022/01/05 00:26:20;;;;;;;5.07;1.88;;;20.20;55.80;;;;;;4994504;28;20483;-61
2022/01/05 00:28:46;;;;;;;5.28;1.90;;;20.20;55.80;;;;;;4995328;28;20469;-60
2022/01/05 00:31:12;;;;;;;5.00;1.73;;;20.10;55.60;;;;;;4995967;28;20046;-61
2022/01/05 00:33:37;;;;;;;4.07;1.50;;;20.10;55.60;;;;;;4993894;28;20042;-61
2022/01/05 00:36:04;;;;;;;4.15;1.60;;;20.10;55.50;;;;;;4994307;28;20042;-61
2022/01/05 00:38:29;;;;;;;4.20;1.50;;;20.00;55.40;;;;;;4993664;28;20050;-61
2022/01/05 00:40:55;;;;;;;5.40;1.85;;;20.10;55.50;;;;;;4995014;28;20129;-61
2022/01/05 00:43:20;;;;;;;4.07;1.60;;;20.00;55.40;;;;;;4994987;28;20050;-61
2022/01/05 00:45:46;;;;;;;4.85;1.73;;;20.00;55.40;;;;;;4995169;28;20042;-60
2022/01/05 00:48:11;;;;;;;4.93;1.83;;;20.00;55.40;;;;;;4994800;28;20049;-61
2022/01/05 00:50:37;;;;;;;5.65;1.92;;;20.00;55.30;;;;;;4994555;28;20482;-61
2022/01/05 00:53:02;;;;;;;3.72;1.50;;;20.00;55.20;;;;;;4995508;28;20096;-61
2022/01/05 00:55:28;;;;;;;4.85;1.33;;;20.00;55.20;;;;;;4992535;28;20069;-61
2022/01/05 00:57:54;;;;;;;4.43;1.65;;;20.00;55.30;;;;;;4994614;28;20116;-61
2022/01/05 01:00:19;;;;;;;4.25;1.40;;;19.90;55.20;;;;;;4994340;28;20046;-61
2022/01/05 01:02:45;;;;;;;3.72;1.30;;;19.90;55.10;;;;;;4994680;28;20054;-61
2022/01/05 01:05:11;;;;;;;4.43;1.40;;;19.90;55.10;;;;;;4994865;28;20053;-61
2022/01/05 01:07:36;;;;;;;4.40;1.30;;;19.90;55.10;;;;;;4993736;28;20054;-61
2022/01/05 01:10:02;;;;;;;3.97;1.30;;;19.90;54.80;;;;;;4994464;28;20042;-61
2022/01/05 01:12:28;;;;;;;4.07;1.52;;;19.90;54.80;;;;;;4993681;28;20050;-61
2022/01/05 01:14:54;;;;;;;3.45;1.48;;;19.90;54.70;;;;;;4992564;28;20088;-61
2022/01/05 01:17:19;;;;;;;4.25;1.63;;;19.80;54.50;;;;;;4993206;28;20042;-61
2022/01/05 01:19:45;;;;;;;4.63;1.23;;;19.80;54.50;;;;;;4993771;28;20060;-61
2022/01/05 01:22:10;;;;;;;5.45;1.48;;;19.90;54.60;;;;;;4993007;28;20050;-61
2022/01/05 01:24:36;;;;;;;3.28;0.95;;;19.80;54.50;;;;;;4991714;28;20097;-61
2022/01/05 01:27:01;;;;;;;3.65;1.23;;;19.80;54.50;;;;;;4994201;28;20140;-61
2022/01/05 01:29:27;;;;;;;3.88;1.25;;;19.80;54.50;;;;;;4994276;28;20049;-61
2022/01/05 01:31:52;;;;;;;3.85;1.05;;;19.80;54.50;;;;;;4992528;28;20046;-61
2022/01/05 01:34:18;;;;;;;4.22;1.00;;;19.80;55.10;;;;;;4994952;28;20050;-61
2022/01/05 01:36:43;;;;;;;4.43;1.15;;;19.80;54.20;;;;;;4993280;28;20038;-61
2022/01/05 01:39:09;;;;;;;3.42;1.10;;;19.80;54.20;;;;;;4993563;28;20101;-61
2022/01/05 01:41:34;;;;;;;3.10;1.30;;;19.80;54.20;;;;;;4993116;28;20130;-61
2022/01/05 01:44:00;;;;;;;3.30;1.30;;;19.70;54.10;;;;;;4992845;28;20069;-61
2022/01/05 01:46:25;;;;;;;3.65;1.17;;;19.70;54.20;;;;;;4994152;28;20493;-61
2022/01/05 01:48:51;;;;;;;3.95;1.20;;;19.70;54.30;;;;;;4976930;28;20046;-61
2022/01/05 01:51:17;;;;;;;4.18;1.08;;;19.70;54.30;;;;;;4994161;28;20042;-61
2022/01/05 01:53:43;;;;;;;3.30;1.00;;;19.70;54.20;;;;;;4992470;28;20133;-61
2022/01/05 01:56:08;;;;;;;3.70;1.00;;;19.70;54.20;;;;;;4993205;28;20468;-61
2022/01/05 01:58:34;;;;;;;2.65;0.95;;;19.70;54.00;;;;;;4960150;28;20061;-61
2022/01/05 02:01:00;;;;;;;3.35;1.02;;;19.70;54.00;;;;;;4992366;28;20228;-61
2022/01/05 02:03:25;;;;;;;3.53;0.90;;;19.70;54.00;;;;;;4994007;28;20053;-61
2022/01/05 02:05:51;;;;;;;3.25;0.90;;;19.70;54.00;;;;;;4992021;28;20045;-61
2022/01/05 02:08:16;;;;;;;4.07;1.15;;;19.70;53.90;;;;;;4993215;28;20133;-61
2022/01/05 02:10:43;;;;;;;4.22;1.20;;;19.60;53.90;;;;;;4993529;28;20046;-61
2022/01/05 02:13:09;;;;;;;4.85;1.52;;;19.60;53.80;;;;;;4992270;28;20073;-61
2022/01/05 02:15:35;;;;;;;3.28;1.05;;;19.60;53.70;;;;;;4993534;28;20482;-61
2022/01/05 02:20:29;;;;;;;1.65;0.63;;;19.60;53.70;;;;;;4992280;28;20050;-60
2022/01/05 02:22:55;;;;;;;2.53;0.88;;;19.60;53.70;;;;;;4992397;28;20053;-61
2022/01/05 02:25:20;;;;;;;3.25;0.90;;;19.60;53.70;;;;;;4992504;28;20485;-61
2022/01/05 02:27:47;;;;;;;3.70;0.88;;;19.60;53.60;;;;;;4992915;28;20061;-61
2022/01/05 02:30:20;;;;;;;2.05;0.70;;;19.60;53.60;;;;;;4993589;28;20050;-60
2022/01/05 02:32:46;;;;;;;1.83;0.63;;;19.50;53.40;;;;;;4991603;28;20490;-60
2022/01/05 02:35:11;;;;;;;2.92;0.90;;;19.60;53.50;;;;;;4993758;28;20038;-61
2022/01/05 02:37:41;;;;;;;2.67;0.80;;;19.50;53.20;;;;;;4992411;28;20073;-61
2022/01/05 02:40:10;;;;;;;3.42;0.80;;;19.50;53.20;;;;;;4992391;28;20114;-61
2022/01/05 02:42:35;;;;;;;;;;;19.50;53.20;;;;;;4993005;28;20042;-61
2022/01/05 02:45:01;;;;;;;4.30;0.90;;;19.50;53.20;;;;;;4992525;28;20373;-62
2022/01/05 02:47:26;;;;;;;4.40;1.05;;;19.50;53.30;;;;;;4992157;28;20076;-61
2022/01/05 02:49:56;;;;;;;3.40;0.70;;;19.50;53.30;;;;;;4992877;28;20463;-61
2022/01/05 02:52:23;;;;;;;5.05;1.00;;;19.50;53.30;;;;;;4992179;28;20068;-61
2022/01/05 02:54:48;;;;;;;3.63;0.88;;;19.50;53.30;;;;;;4990006;28;20042;-61
2022/01/05 02:57:14;;;;;;;3.22;0.80;;;19.50;53.20;;;;;;4992196;28;20125;-61
2022/01/05 02:59:39;;;;;;;2.55;1.08;;;19.50;53.20;;;;;;4993179;28;20042;-61
2022/01/05 03:02:05;;;;;;;3.03;0.88;;;19.50;53.20;;;;;;4982208;28;20128;-61
2022/01/05 03:04:31;;;;;;;2.75;0.90;;;19.50;53.10;;;;;;4990467;28;20367;-61
2022/01/05 03:06:56;;;;;;;3.67;1.02;;;19.50;53.00;;;;;;4989039;28;20042;-61
2022/01/05 03:09:22;;;;;;;4.32;0.80;;;19.50;52.90;;;;;;4991762;28;20129;-61
2022/01/05 03:11:47;;;;;;;4.28;0.85;;;19.50;52.70;;;;;;4992807;28;20057;-61
2022/01/05 03:14:13;;;;;;;2.78;0.80;;;19.50;52.60;;;;;;4991834;28;20035;-61
2022/01/05 03:16:38;;;;;;;4.07;0.77;;;19.50;52.50;;;;;;4992630;28;20069;-61
2022/01/05 03:19:04;;;;;;;4.07;1.00;;;19.50;52.40;;;;;;4992271;28;20050;-61
2022/01/05 03:21:29;;;;;;;4.97;0.80;;;19.50;52.30;;;;;;4997023;28;20043;-61
2022/01/05 03:23:55;;;;;;;3.28;0.95;;;19.50;52.40;;;;;;4994749;28;20119;-61
2022/01/05 03:26:20;;;;;;;3.10;0.80;;;19.50;52.30;;;;;;4997461;28;20085;-61
2022/01/05 03:28:46;;;;;;;3.85;0.93;;;19.50;52.20;;;;;;4996933;28;20107;-61
2022/01/05 03:31:11;;;;;;;3.28;0.70;;;19.60;52.20;;;;;;4993987;28;20125;-61
2022/01/05 03:33:37;;;;;;;2.92;0.80;;;19.60;52.10;;;;;;4994320;28;20057;-61
2022/01/05 03:36:02;;;;;;;4.75;0.95;;;19.60;52.10;;;;;;4994191;28;20490;-61
2022/01/05 03:38:29;;;;;;;3.55;0.85;;;19.60;52.10;;;;;;4996069;28;20048;-61
2022/01/05 03:40:55;;;;;;;2.85;0.80;;;19.60;52.00;;;;;;4996489;28;20153;-61
2022/01/05 03:43:20;;;;;;;2.30;0.73;;;19.60;52.00;;;;;;4994267;28;20137;-61
2022/01/05 03:45:47;;;;;;;4.82;0.82;;;19.60;52.00;;;;;;4993435;28;20077;-61
2022/01/05 03:48:14;;;;;;;2.40;0.60;;;19.60;52.00;;;;;;4995398;28;20046;-61
2022/01/05 03:50:40;;;;;;;2.78;0.63;;;19.60;52.00;;;;;;4995726;28;20042;-61
2022/01/05 03:53:06;;;;;;;3.35;0.70;;;19.60;51.90;;;;;;4995387;28;20049;-60
2022/01/05 03:55:32;;;;;;;2.15;0.50;;;19.60;51.80;;;;;;4996078;28;20046;-61
2022/01/05 03:57:58;;;;;;;2.83;0.85;;;19.60;51.80;;;;;;4992683;28;20097;-61
2022/01/05 04:00:26;;;;;;;3.10;0.60;;;19.70;51.80;;;;;;4995244;28;20050;-61
2022/01/05 04:02:52;;;;;;;;;;;19.70;51.80;;;;;;4995545;28;20137;-61
2022/01/05 04:05:17;;;;;;;5.65;0.80;;;19.60;51.80;;;;;;4994203;28;20020;-61
2022/01/05 04:07:43;;;;;;;2.67;0.68;;;19.70;51.90;;;;;;4993875;28;20054;-61
2022/01/05 04:10:08;;;;;;;6.47;1.00;;;19.70;51.90;;;;;;4994282;28;20042;-61
2022/01/05 04:12:34;;;;;;;4.28;0.90;;;19.70;51.80;;;;;;4995283;28;20041;-61
2022/01/05 04:14:59;;;;;;;5.68;0.77;;;19.70;51.80;;;;;;4995638;28;20489;-61
2022/01/05 04:17:25;;;;;;;2.90;0.60;;;19.70;51.80;;;;;;4995100;28;20054;-61
2022/01/05 04:19:51;;;;;;;4.18;1.08;;;19.70;51.70;;;;;;4994769;28;20050;-61
2022/01/05 04:22:16;;;;;;;2.70;0.80;;;19.70;51.70;;;;;;4996095;28;20062;-61
2022/01/05 04:24:42;;;;;;;3.67;1.15;;;19.70;51.70;;;;;;4995281;28;20050;-61
2022/01/05 04:27:07;;;;;;;3.58;0.88;;;19.80;51.80;;;;;;4993976;28;20129;-61
2022/01/05 04:29:33;;;;;;;3.70;0.68;;;19.80;51.80;;;;;;4994263;28;20081;-61
2022/01/05 04:32:00;;;;;;;4.28;0.60;;;19.80;51.80;;;;;;4994661;28;20054;-61
2022/01/05 04:34:26;;;;;;;2.83;0.60;;;19.80;51.60;;;;;;4993803;28;20042;-61
2022/01/05 04:36:51;;;;;;;3.25;0.70;;;19.80;51.70;;;;;;4993697;28;20050;-61
2022/01/05 04:39:17;;;;;;;2.92;0.88;;;19.80;51.60;;;;;;4994470;28;20042;-61
2022/01/05 04:41:42;;;;;;;2.75;0.90;;;19.80;51.60;;;;;;4993676;28;20395;-61
2022/01/05 04:44:08;;;;;;;2.45;0.82;;;19.80;51.60;;;;;;4993583;28;20043;-61
2022/01/05 04:46:33;;;;;;;3.47;0.73;;;19.80;51.60;;;;;;4993858;28;20050;-61
2022/01/05 04:48:59;;;;;;;3.08;0.52;;;19.80;51.60;;;;;;4995238;28;20085;-61
2022/01/05 04:51:24;;;;;;;3.10;0.70;;;19.80;51.50;;;;;;4993311;28;20076;-61
2022/01/05 04:53:51;;;;;;;3.83;0.82;;;19.80;51.50;;;;;;4993817;28;20042;-61
2022/01/05 04:56:17;;;;;;;3.65;0.73;;;19.80;51.40;;;;;;4994298;28;20054;-61
2022/01/05 04:58:42;;;;;;;4.18;0.80;;;19.80;51.40;;;;;;4993594;28;20487;-61
2022/01/05 05:01:08;;;;;;;3.83;0.80;;;19.90;51.50;;;;;;4988176;28;20086;-61
2022/01/05 05:03:33;;;;;;;2.60;0.55;;;19.90;51.40;;;;;;4997390;28;20052;-61
2022/01/05 05:05:59;;;;;;;5.45;0.73;;;19.90;51.40;;;;;;5005280;28;20038;-61
2022/01/05 05:08:24;;;;;;;3.50;0.93;;;19.90;51.30;;;;;;4992036;28;20498;-61
2022/01/05 05:10:50;;;;;;;3.13;0.73;;;19.90;51.20;;;;;;4993174;28;20054;-59
2022/01/05 05:13:15;;;;;;;4.57;0.90;;;19.90;51.20;;;;;;4992148;28;20046;-59
2022/01/05 05:15:41;;;;;;;2.10;0.52;;;19.90;51.20;;;;;;4991220;28;20042;-59
2022/01/05 05:18:07;;;;;;;4.85;0.80;;;19.90;51.20;;;;;;4993283;28;20045;-59
2022/01/05 05:20:32;;;;;;;3.00;0.70;;;19.90;51.10;;;;;;4992360;28;20045;-59
2022/01/05 05:22:59;;;;;;;4.72;0.93;;;19.90;51.10;;;;;;4994062;28;20069;-59
2022/01/05 05:25:25;;;;;;;3.92;0.63;;;19.90;51.10;;;;;;4993525;28;20089;-60
2022/01/05 05:27:50;;;;;;;3.45;0.90;;;19.90;51.10;;;;;;4994596;28;20042;-60
2022/01/05 05:30:16;;;;;;;3.30;0.63;;;19.90;51.00;;;;;;4994102;28;20038;-61
2022/01/05 05:32:41;;;;;;;2.75;0.63;;;19.90;51.00;;;;;;4994665;28;20092;-60
2022/01/05 05:35:07;;;;;;;3.30;0.77;;;19.90;51.00;;;;;;4994757;28;20078;-60
2022/01/05 05:37:33;;;;;;;4.25;0.80;;;19.90;51.00;;;;;;5008916;28;20427;-60
2022/01/05 05:39:58;;;;;;;5.40;0.90;;;20.00;51.00;;;;;;4993023;28;20050;-60
2022/01/05 05:42:25;;;;;;;2.10;0.68;;;19.90;50.90;;;;;;4994318;28;20047;-60
2022/01/05 05:44:51;;;;;;;4.43;0.80;;;20.00;51.00;;;;;;4992068;28;20486;-60
2022/01/05 05:47:17;;;;;;;3.78;0.88;;;20.00;50.90;;;;;;4994527;28;20050;-60
2022/01/05 05:49:44;;;;;;;3.85;0.88;;;20.00;50.90;;;;;;4993864;28;20104;-61
2022/01/05 05:52:09;;;;;;;5.20;1.02;;;20.00;51.00;;;;;;4994175;28;20394;-60
2022/01/05 05:54:35;;;;;;;3.90;0.90;;;19.90;50.90;;;;;;4993293;28;20050;-60
2022/01/05 05:57:00;;;;;;;2.95;0.60;;;20.00;50.90;;;;;;4992317;28;20061;-60
2022/01/05 05:59:26;;;;;;;3.60;0.70;;;20.00;50.90;;;;;;4993953;28;20046;-60
2022/01/05 06:01:51;;;;;;;3.88;0.93;;;20.00;50.90;;;;;;4993981;28;20047;-61
2022/01/05 06:04:19;;;;;;;4.25;0.82;;;20.00;51.50;;;;;;4993809;28;20042;-60
2022/01/05 06:06:45;;;;;;;4.38;0.80;;;20.00;50.70;;;;;;4993938;28;20101;-60
2022/01/05 06:09:10;;;;;;;4.82;0.80;;;20.00;50.60;;;;;;4993786;28;20090;-60
2022/01/05 06:11:36;;;;;;;3.28;0.70;;;20.00;50.60;;;;;;4992435;28;20132;-60
2022/01/05 06:14:01;;;;;;;4.97;1.05;;;20.00;50.60;;;;;;4992140;28;20128;-60
2022/01/05 06:16:27;;;;;;;4.32;0.95;;;20.00;50.60;;;;;;4993727;28;20100;-60
2022/01/05 06:18:52;;;;;;;4.70;0.95;;;20.00;50.50;;;;;;4993306;28;20398;-60
2022/01/05 06:21:18;;;;;;;4.85;0.75;;;20.00;50.60;;;;;;4994007;28;20126;-61
2022/01/05 06:23:43;;;;;;;4.22;1.15;;;20.00;50.50;;;;;;4992065;28;20046;-61
2022/01/05 06:26:09;;;;;;;3.28;0.80;;;20.00;50.60;;;;;;4992255;28;20126;-60
2022/01/05 06:28:34;;;;;;;6.15;0.90;;;20.00;50.50;;;;;;4991457;28;20046;-60
2022/01/05 06:31:00;;;;;;;5.55;0.80;;;20.00;50.50;;;;;;4992305;28;20054;-60
2022/01/05 06:33:25;;;;;;;3.53;0.80;;;20.00;50.50;;;;;;4992924;28;20474;-60
2022/01/05 06:35:51;;;;;;;5.15;0.85;;;20.10;50.50;;;;;;4993323;28;20434;-61
2022/01/05 06:38:16;;;;;;;3.03;0.85;;;20.10;50.50;;;;;;4992356;28;20043;-61
2022/01/05 06:40:42;;;;;;;4.22;1.00;;;20.10;50.50;;;;;;4992760;28;20042;-61
2022/01/05 06:43:07;;;;;;;4.05;0.77;;;20.00;50.30;;;;;;4993748;28;20046;-61
2022/01/05 06:45:33;;;;;;;2.65;0.70;;;20.10;50.40;;;;;;4992050;28;20042;-61
2022/01/05 06:47:58;;;;;;;5.18;0.85;;;20.10;50.40;;;;;;4991293;28;20042;-61
2022/01/05 06:50:24;;;;;;;3.17;0.82;;;20.00;50.30;;;;;;4992416;28;20097;-61
2022/01/05 06:52:50;;;;;;;3.80;1.08;;;20.10;50.30;;;;;;4993173;28;20125;-61
2022/01/05 06:55:16;;;;;;;5.28;1.10;;;20.00;50.30;;;;;;4992388;28;20046;-60
2022/01/05 06:57:41;;;;;;;4.10;0.90;;;20.10;50.30;;;;;;4991867;28;20096;-61
2022/01/05 07:00:11;;;;;;;2.40;0.73;;;20.10;50.30;;;;;;4992408;28;20054;-61
2022/01/05 07:02:37;;;;;;;3.55;1.00;;;20.10;50.30;;;;;;4993064;28;20406;-59
2022/01/05 07:05:03;;;;;;;5.10;0.90;;;20.10;50.20;;;;;;4992934;28;20486;-62
2022/01/05 07:07:29;;;;;;;3.88;1.17;;;20.10;50.30;;;;;;4992675;28;20133;-58
2022/01/05 07:09:54;;;;;;;3.00;0.80;;;20.10;50.30;;;;;;4992886;28;20154;-58
2022/01/05 07:12:20;;;;;;;6.95;1.20;;;20.20;50.40;;;;;;4991953;28;20074;-60
2022/01/05 07:14:45;;;;;;;3.95;0.80;;;20.10;50.40;;;;;;4991040;28;20129;-60
2022/01/05 07:17:11;;;;;;;4.10;0.88;;;20.10;50.40;;;;;;4993066;28;20053;-60
2022/01/05 07:19:36;;;;;;;7.45;1.63;;;20.20;50.40;;;;;;4993037;28;20042;-60
2022/01/05 07:22:02;;;;;;;5.43;1.10;;;20.10;50.30;;;;;;4991095;28;20057;-60
2022/01/05 07:24:28;;;;;;;5.35;1.10;;;20.20;50.40;;;;;;4992785;28;20072;-60
2022/01/05 07:26:53;;;;;;;4.20;0.82;;;20.10;50.30;;;;;;4992941;28;20046;-60
2022/01/05 07:29:19;;;;;;;6.68;1.10;;;20.10;50.40;;;;;;4990551;28;20109;-60
2022/01/05 07:31:44;;;;;;;6.15;0.90;;;20.10;50.40;;;;;;4997324;28;20038;-61
2022/01/05 07:34:10;;;;;;;5.57;1.10;;;20.20;50.60;;;;;;5001753;28;20137;-59
2022/01/05 07:36:36;;;;;;;4.60;1.00;;;20.20;50.80;;;;;;5002617;28;20073;-59
2022/01/05 07:39:03;;;;;;;6.13;1.38;;;20.20;50.80;;;;;;5009774;28;20034;-59
2022/01/05 07:41:29;;;;;;;6.10;1.48;;;20.10;50.80;;;;;;5012448;28;20394;-60
2022/01/05 07:43:54;;;;;;;6.15;1.08;;;20.20;50.90;;;;;;5010225;28;20580;-60
2022/01/05 07:46:20;;;;;;;5.00;1.20;;;20.20;51.00;;;;;;5011159;28;20038;-60
2022/01/05 07:48:46;;;;;;;4.82;1.00;;;20.20;51.00;;;;;;5010751;28;20050;-60
2022/01/05 07:51:12;;;;;;;4.75;1.38;;;20.20;51.00;;;;;;5012047;28;20201;-60
2022/01/05 07:53:37;;;;;;;3.97;1.00;;;20.20;51.00;;;;;;5012893;28;20140;-61
2022/01/05 07:56:03;;;;;;;5.68;1.20;;;20.20;51.00;;;;;;5012143;28;20049;-60
2022/01/05 07:58:28;;;;;;;4.20;0.90;;;20.20;51.10;;;;;;5010137;28;20073;-60
2022/01/05 08:00:54;;;;;;;4.38;0.80;;;20.20;51.10;;;;;;5011965;28;20133;-60
2022/01/05 08:03:19;;;;;;;7.60;1.00;;;20.20;51.10;;;;;;5010811;28;20081;-61
2022/01/05 08:05:45;;;;;;;6.72;1.20;;;20.20;51.10;;;;;;5012288;28;20484;-60
2022/01/05 08:08:11;;;;;;;3.88;0.98;;;20.20;51.20;;;;;;5015705;28;20053;-60
2022/01/05 08:10:36;;;;;;;5.18;0.80;;;20.20;51.30;;;;;;5015684;28;20056;-60
2022/01/05 08:13:03;;;;;;;7.72;0.98;;;20.20;51.10;;;;;;5015349;28;20048;-61
2022/01/05 08:15:28;;;;;;;2.25;0.68;;;20.20;51.20;;;;;;5015801;28;20042;-61
2022/01/05 08:17:54;;;;;;;6.55;0.95;;;20.30;51.40;;;;;;5013719;28;20474;-61
2022/01/05 08:20:19;;;;;;;4.68;0.88;;;20.30;51.40;;;;;;5015790;28;20046;-61
2022/01/05 08:22:45;;;;;;;3.83;0.88;;;20.30;51.40;;;;;;5015481;28;20367;-59
2022/01/05 08:25:13;;;;;;;3.33;0.80;;;20.30;51.40;;;;;;5015193;28;20505;-62
2022/01/05 08:27:46;;;;;;;3.92;0.80;;;20.30;51.50;;;;;;5015165;28;20481;-61
2022/01/05 08:30:16;;;;;;;3.92;0.90;;;20.30;51.60;;;;;;5015511;28;20034;-61
2022/01/05 08:32:42;;;;;;;5.93;1.00;;;20.30;51.60;;;;;;4998102;28;20050;-61
2022/01/05 08:35:08;;;;;;;2.97;0.90;;;20.30;51.40;;;;;;5014236;28;20081;-61
2022/01/05 08:37:34;;;;;;;3.88;0.80;;;20.30;51.50;;;;;;5013943;28;20050;-61
2022/01/05 08:39:59;;;;;;;4.07;0.80;;;20.30;51.60;;;;;;5012890;28;20455;-61
2022/01/05 08:42:25;;;;;;;5.32;0.95;;;20.30;51.50;;;;;;5014123;28;20221;-61
2022/01/05 08:44:50;;;;;;;4.13;0.90;;;20.30;51.50;;;;;;5013948;28;20046;-61
2022/01/05 08:47:16;;;;;;;3.72;0.80;;;20.40;51.60;;;;;;5012978;28;20080;-61
2022/01/05 08:49:41;;;;;;;5.45;1.15;;;20.40;51.60;;;;;;5014934;28;20073;-61
2022/01/05 08:52:07;;;;;;;3.30;0.73;;;20.30;51.60;;;;;;5014185;28;20081;-61
2022/01/05 08:54:33;;;;;;;3.47;0.90;;;20.30;51.60;;;;;;5014298;28;20485;-58
2022/01/05 08:56:58;;;;;;;4.40;0.98;;;20.40;51.60;;;;;;5013804;28;20037;-60
2022/01/05 08:59:24;;;;;;;5.93;0.90;;;20.30;51.60;;;;;;4997494;28;20562;-60
2022/01/05 09:01:49;;;;;;;4.50;1.10;;;20.40;51.70;;;;;;5013912;28;20046;-60
2022/01/05 09:04:15;;;;;;;4.95;0.90;;;20.40;51.70;;;;;;5013592;28;20052;-61
2022/01/05 09:06:41;;;;;;;4.40;0.80;;;20.40;51.70;;;;;;5014675;28;20061;-61
2022/01/05 09:09:06;;;;;;;3.70;0.73;;;20.40;51.70;;;;;;5014384;28;20084;-60
2022/01/05 09:11:32;;;;;;;3.45;0.70;;;20.40;51.80;;;;;;5014843;28;20497;-61
2022/01/05 09:13:57;;;;;;;3.47;0.80;;;20.40;51.70;;;;;;5012946;28;20062;-61
2022/01/05 09:16:23;;;;;;;3.53;0.70;;;20.40;51.70;;;;;;5012945;28;20038;-61
2022/01/05 09:18:49;;;;;;;2.20;0.70;;;20.40;51.70;;;;;;5012789;28;20045;-61
2022/01/05 09:21:15;;;;;;;3.80;0.93;;;20.40;51.60;;;;;;5012286;28;20125;-61
2022/01/05 09:23:43;;;;;;;3.63;0.80;;;20.40;51.50;;;;;;5014039;28;20129;-62
2022/01/05 09:26:08;;;;;;;5.57;1.17;;;20.40;51.50;;;;;;5013106;28;20450;-61
2022/01/05 09:28:40;;;;;;;3.15;0.93;;;20.40;51.40;;;;;;5014069;28;20558;-61
2022/01/05 09:31:06;;;;;;;5.20;0.98;;;20.40;51.30;;;;;;5014459;28;20048;-61
2022/01/05 09:33:31;;;;;;;3.55;0.90;;;20.40;51.20;;;;;;5013286;28;20046;-62
2022/01/05 09:36:05;;;;;;;5.88;1.10;;;20.40;51.20;;;;;;5013240;28;20085;-64
2022/01/05 09:41:56;;;;;;;4.60;1.02;;;20.40;51.40;;;;;;5014132;28;20084;-60
2022/01/05 09:44:12;;;;;;;3.80;1.27;;;20.40;51.70;;;;;;4998099;28;20104;-61
2022/01/05 09:46:41;;;;;;;4.60;1.23;;;20.40;51.80;;;;;;5012981;28;20437;-61
2022/01/05 09:49:33;;;;;;;5.45;1.23;;;20.40;51.70;;;;;;5013527;28;20103;-60
2022/01/05 09:52:02;;;;;;;5.68;1.13;;;20.50;51.90;;;;;;5011234;28;20112;-60
2022/01/05 09:54:28;;;;;;;5.18;1.23;;;20.40;51.80;;;;;;5014234;28;20096;-59
2022/01/05 09:56:53;;;;;;;5.95;1.02;;;20.50;52.60;;;;;;5011581;28;20482;-60
2022/01/05 09:59:19;;;;;;;2.58;0.90;;;20.50;51.90;;;;;;5012699;28;20052;-61
2022/01/05 10:01:45;;;;;;;4.90;1.35;;;20.50;51.80;;;;;;5012176;28;20064;-60
2022/01/05 10:04:13;;;;;;;7.72;1.30;;;20.50;51.90;;;;;;5012102;28;20515;-60
2022/01/05 10:06:39;;;;;;;3.22;1.10;;;20.50;52.00;;;;;;5012535;28;20129;-61
2022/01/05 10:09:05;;;;;;;6.72;1.15;;;20.50;52.00;;;;;;5013331;28;20153;-60
2022/01/05 10:11:30;;;;;;;4.70;0.98;;;20.50;52.10;;;;;;5012895;28;20065;-60
2022/01/05 10:13:56;;;;;;;4.43;1.00;;;20.50;52.10;;;;;;5012244;28;20041;-60
2022/01/05 10:16:21;;;;;;;3.65;1.30;;;20.50;52.20;;;;;;5012545;28;20076;-61
2022/01/05 10:18:47;;;;;;;5.45;1.27;;;20.50;52.20;;;;;;5012218;28;20041;-61
2022/01/05 10:21:14;;;;;;;6.57;0.93;;;20.50;52.30;;;;;;5013738;28;20053;-60
2022/01/05 10:23:52;;;;;;;7.07;1.15;;;20.50;52.30;;;;;;5013525;28;20038;-61
2022/01/05 10:26:30;;;;;;;;;;;20.60;52.30;;;;;;5013317;28;20077;-61
2022/01/05 10:29:05;;;;;;;4.60;0.85;;;20.50;52.40;;;;;;5012420;28;19975;-60
2022/01/05 10:31:35;;;;;;;3.92;0.95;;;20.50;52.40;;;;;;5011703;28;20053;-60
2022/01/05 10:34:22;;;;;;;3.70;0.85;;;20.60;52.40;;;;;;5011639;28;20046;-60
2022/01/05 10:36:49;;;;;;;5.13;0.98;;;20.60;53.00;;;;;;5013400;28;20560;-61
2022/01/05 10:39:16;;;;;;;2.17;0.70;;;20.60;52.20;;;;;;5011542;28;20038;-61
2022/01/05 10:41:43;;;;;;;4.78;0.93;;;20.60;52.20;;;;;;5011195;28;20057;-60
2022/01/05 10:44:19;;;;;;;3.88;0.98;;;20.60;52.10;;;;;;5013342;28;20049;-62
2022/01/05 10:46:53;;;;;;;4.43;1.00;;;20.60;52.20;;;;;;5006566;28;20049;-60
2022/01/05 10:49:44;;;;;;;4.28;0.93;;;20.60;52.00;;;;;;4973935;28;20038;-59
2022/01/05 10:52:23;;;;;;;8.27;1.27;;;20.60;51.70;;;;;;4973198;28;20112;-60
2022/01/05 10:54:48;;;;;;;;;;;20.60;52.10;;;;;;4972908;28;20046;-60
2022/01/05 10:57:14;;;;;;;5.78;1.30;;;20.60;52.10;;;;;;4972715;28;20361;-59
2022/01/05 10:59:43;;;;;;;7.03;1.45;;;20.60;52.10;;;;;;4972066;28;20046;-59
2022/01/05 11:02:32;;;;;;;7.68;1.25;;;20.60;52.00;;;;;;4973660;28;20114;-59
2022/01/05 11:05:09;;;;;;;5.10;1.15;;;20.60;52.80;;;;;;4973787;28;20047;-59
2022/01/05 11:07:37;;;;;;;4.10;1.08;;;20.60;52.00;;;;;;4972877;28;20179;-60
2022/01/05 11:10:05;;;;;;;5.28;1.30;;;20.60;52.10;;;;;;4972240;28;20047;-60
2022/01/05 11:12:32;;;;;;;7.43;1.27;;;20.70;52.20;;;;;;4973986;28;20105;-60
2022/01/05 11:15:17;;;;;;;3.65;1.10;;;20.60;52.20;;;;;;4972383;28;20531;-60
2022/01/05 11:18:16;;;;;;;9.77;1.48;;;20.70;52.20;;;;;;4973687;28;20043;-60
2022/01/05 11:21:02;;;;;;;3.67;0.90;;;20.70;52.20;;;;;;4970577;28;20050;-60
2022/01/05 11:23:28;;;;;;;8.10;1.30;;;20.70;52.10;;;;;;4972619;28;20051;-60
2022/01/05 11:25:55;;;;;;;5.90;1.08;;;20.70;52.10;;;;;;4973255;28;20129;-60
2022/01/05 11:28:21;;;;;;;5.07;1.17;;;20.70;52.00;;;;;;4971471;28;20051;-60
2022/01/05 11:30:48;;;;;;;8.77;1.27;;;20.70;52.10;;;;;;4973417;28;20058;-59
2022/01/05 11:33:14;;;;;;;5.22;1.05;;;20.70;52.20;;;;;;4973559;28;20046;-60
2022/01/05 11:35:39;;;;;;;5.97;1.20;;;20.70;52.10;;;;;;4998558;28;20081;-60
2022/01/05 11:38:05;;;;;;;5.47;1.13;;;20.70;52.10;;;;;;5002423;28;20042;-60
2022/01/05 11:40:31;;;;;;;5.25;1.27;;;20.70;52.00;;;;;;5003143;28;20046;-59
2022/01/05 11:43:04;;;;;;;9.65;1.40;;;20.70;52.00;;;;;;5002988;28;20383;-60
2022/01/05 11:45:33;;;;;;;6.28;1.08;;;20.70;52.00;;;;;;5004201;28;20465;-60
2022/01/05 11:48:20;;;;;;;4.30;1.00;;;20.70;51.90;;;;;;5008138;28;20057;-60
2022/01/05 11:50:53;;;;;;;6.38;1.00;;;20.70;51.80;;;;;;4988921;28;20070;-60
2022/01/05 11:53:45;;;;;;;4.72;1.02;;;20.70;51.80;;;;;;4995358;28;20097;-60
2022/01/05 11:56:20;;;;;;;9.30;1.02;;;20.80;51.90;;;;;;4992660;28;20050;-60
2022/01/05 11:58:56;;;;;;;5.30;1.00;;;20.70;51.80;;;;;;4996309;28;20125;-60
2022/01/05 12:01:29;;;;;;;8.07;1.30;;;20.80;51.90;;;;;;4996692;28;20121;-60
2022/01/05 12:03:56;;;;;;;4.50;0.98;;;20.80;51.90;;;;;;4995258;28;20058;-60
2022/01/05 12:06:32;;;;;;;5.60;0.90;;;20.80;51.80;;;;;;4996299;28;20050;-60
2022/01/05 12:08:59;;;;;;;5.53;1.20;;;20.80;51.70;;;;;;4995122;28;20085;-60
2022/01/05 12:11:34;;;;;;;6.90;1.17;;;20.80;51.80;;;;;;4995821;28;20046;-60
2022/01/05 12:14:04;;;;;;;5.22;1.05;;;20.80;51.70;;;;;;4994634;28;20442;-61
2022/01/05 12:17:10;;;;;;;5.40;1.13;;;20.80;51.80;;;;;;4994097;28;20461;-60
2022/01/05 12:19:41;;;;;;;5.15;1.08;;;20.80;51.80;;;;;;5002419;28;20069;-60
2022/01/05 12:22:18;;;;;;;5.85;1.08;;;20.80;51.80;;;;;;5013652;28;20478;-60
2022/01/05 12:24:56;;;;;;;5.30;1.15;;;20.80;51.80;;;;;;5002425;28;20050;-59
2022/01/05 12:27:23;;;;;;;7.00;1.33;;;20.80;51.80;;;;;;5001467;28;20070;-60
2022/01/05 12:29:49;;;;;;;5.78;1.35;;;20.80;51.90;;;;;;5005077;28;20449;-60
2022/01/05 12:32:31;;;;;;;4.57;1.20;;;20.80;51.90;;;;;;5005059;28;20134;-60
2022/01/05 12:34:58;;;;;;;9.35;1.70;;;20.80;51.80;;;;;;5005255;28;20176;-60
2022/01/05 12:37:55;;;;;;;6.60;1.55;;;20.80;51.90;;;;;;5015703;28;20072;-60
2022/01/05 12:40:42;;;;;;;7.53;1.63;;;20.80;51.80;;;;;;5015453;28;20042;-59
2022/01/05 12:43:07;;;;;;;7.95;1.95;;;20.80;52.00;;;;;;5014196;28;20485;-59
2022/01/05 12:45:52;;;;;;;7.47;2.08;;;20.80;52.10;;;;;;5011985;28;20052;-59
2022/01/05 12:48:33;;;;;;;7.40;1.65;;;20.90;52.20;;;;;;4996386;28;20405;-59
2022/01/05 12:51:23;;;;;;;8.32;1.85;;;20.90;52.10;;;;;;4974852;28;20478;-59
2022/01/05 12:53:56;;;;;;;6.43;1.70;;;20.90;52.10;;;;;;4974836;28;20132;-59
2022/01/05 12:56:29;;;;;;;12.27;2.20;;;20.90;52.10;;;;;;4974709;28;20107;-60